Time;durP1;ratioP1;P1;durP2;ratioP2;P2;SDS_P1;SDS_P2;PMS_P1;PMS_P2;Temp;Humidity;BMP_temperature;BMP_pressure;BME280_temperature;BME280_humidity;BME280_pressure;Samples;Min_cycle;Max_cycle;Signal;HPM_P1;HPM_P2
2021/12/26 00:02:24;;;;;;;8.02;1.88;;;-6.60;99.90;;;;;;6222705;22;20020;-88
2021/12/26 00:04:50;;;;;;;5.10;1.88;;;-6.60;99.90;;;;;;6248262;22;20437;-87
2021/12/26 00:07:16;;;;;;;4.95;2.08;;;-6.40;99.90;;;;;;6222280;22;20051;-88
2021/12/26 00:09:42;;;;;;;4.47;1.90;;;-6.70;99.90;;;;;;6247970;22;20023;-88
2021/12/26 00:12:10;;;;;;;2.45;1.52;;;-6.70;99.90;;;;;;6235893;22;20034;-89
2021/12/26 00:14:35;;;;;;;6.32;2.08;;;-6.60;99.90;;;;;;6197104;22;20023;-88
2021/12/26 00:17:02;;;;;;;4.43;1.70;;;-6.60;99.90;;;;;;6219247;22;20023;-88
2021/12/26 00:19:27;;;;;;;3.30;1.35;;;-6.60;99.90;;;;;;6247521;22;20411;-88
2021/12/26 00:21:53;;;;;;;3.92;1.50;;;-6.60;99.90;;;;;;6247688;22;20051;-88
2021/12/26 00:24:19;;;;;;;3.20;1.42;;;-6.60;99.90;;;;;;6222196;22;20023;-88
2021/12/26 00:26:45;;;;;;;4.68;1.10;;;-6.10;99.90;;;;;;6247283;22;20026;-88
2021/12/26 00:29:11;;;;;;;2.50;1.20;;;-6.60;99.90;;;;;;6222089;22;20023;-88
2021/12/26 00:31:37;;;;;;;3.28;1.50;;;-6.30;99.90;;;;;;6222595;22;20027;-88
2021/12/26 00:34:04;;;;;;;2.42;1.33;;;-6.60;99.90;;;;;;6222317;22;20352;-87
2021/12/26 00:36:30;;;;;;;4.47;1.52;;;-6.60;99.90;;;;;;6247113;22;20056;-88
2021/12/26 00:38:56;;;;;;;3.60;1.50;;;-6.60;99.90;;;;;;6224390;22;20027;-88
2021/12/26 00:41:24;;;;;;;3.60;1.17;;;-6.50;99.90;;;;;;6241142;22;20016;-88
2021/12/26 00:43:52;;;;;;;4.45;1.33;;;-6.60;99.90;;;;;;6223750;22;20019;-87
2021/12/26 00:46:21;;;;;;;1.95;0.85;;;-6.60;99.90;;;;;;6249606;22;20027;-88
2021/12/26 00:48:47;;;;;;;3.22;1.40;;;-6.70;99.90;;;;;;6224634;22;20011;-88
2021/12/26 00:51:16;;;;;;;3.35;1.48;;;-6.40;99.90;;;;;;6249819;22;20335;-88
2021/12/26 00:53:42;;;;;;;2.83;1.30;;;-7.10;99.90;;;;;;6249856;22;20538;-88
2021/12/26 00:56:08;;;;;;;2.33;1.25;;;-6.20;99.90;;;;;;6250017;22;20051;-88
2021/12/26 00:58:34;;;;;;;4.43;1.40;;;-6.30;99.90;;;;;;6224061;22;20020;-88
2021/12/26 01:01:00;;;;;;;5.63;1.60;;;-6.70;99.90;;;;;;6224635;22;20019;-88
2021/12/26 01:03:26;;;;;;;3.28;1.20;;;-6.70;99.90;;;;;;6224360;22;20026;-87
2021/12/26 01:05:56;;;;;;;4.57;1.48;;;-6.70;99.90;;;;;;6249268;22;20020;-87
2021/12/26 01:08:29;;;;;;;5.30;1.40;;;-6.70;99.90;;;;;;6223846;22;20027;-88
2021/12/26 01:11:17;;;;;;;4.28;1.55;;;-6.80;99.90;;;;;;6249347;22;20529;-88
2021/12/26 01:13:48;;;;;;;5.65;1.50;;;-6.80;99.90;;;;;;6223802;22;20022;-87
2021/12/26 01:16:15;;;;;;;2.35;1.30;;;-6.80;99.90;;;;;;6211916;22;20058;-88
2021/12/26 01:18:51;;;;;;;3.53;1.30;;;-6.80;99.90;;;;;;6275060;22;20085;-87
2021/12/26 01:21:25;;;;;;;2.42;1.13;;;-6.80;99.90;;;;;;6248669;22;20507;-88
2021/12/26 01:23:56;;;;;;;4.45;1.40;;;-6.80;99.90;;;;;;6223909;22;20019;-87
2021/12/26 01:26:25;;;;;;;2.92;1.58;;;-6.40;99.90;;;;;;6224283;22;20104;-88
2021/12/26 01:28:52;;;;;;;4.22;1.20;;;-6.50;99.90;;;;;;6223429;22;20030;-88
2021/12/26 01:31:21;;;;;;;2.20;0.98;;;-6.30;99.90;;;;;;6249408;22;20020;-88
2021/12/26 01:33:55;;;;;;;2.95;1.20;;;-6.70;99.90;;;;;;6248591;22;20093;-87
2021/12/26 01:36:25;;;;;;;3.63;1.20;;;-6.70;99.90;;;;;;6223290;22;20023;-91
2021/12/26 01:38:51;;;;;;;2.37;1.50;;;-6.70;99.90;;;;;;6274811;22;20047;-88
2021/12/26 01:41:18;;;;;;;2.75;1.48;;;-5.90;99.90;;;;;;6248659;22;20031;-88
2021/12/26 01:43:46;;;;;;;3.03;1.10;;;-6.70;99.90;;;;;;6223145;22;20027;-88
2021/12/26 01:46:14;;;;;;;3.17;1.00;;;-6.70;99.90;;;;;;6223835;22;20073;-88
2021/12/26 01:48:42;;;;;;;4.32;1.35;;;-6.70;99.90;;;;;;6249023;22;20027;-88
2021/12/26 01:51:11;;;;;;;2.97;1.35;;;-6.70;99.90;;;;;;6248847;22;20386;-88
2021/12/26 01:53:39;;;;;;;4.50;1.45;;;-6.70;99.90;;;;;;6249134;22;20024;-87
2021/12/26 01:56:12;;;;;;;3.20;1.50;;;-6.40;99.90;;;;;;6223664;22;20028;-87
2021/12/26 01:58:39;;;;;;;2.35;1.35;;;-6.80;99.90;;;;;;6223099;22;20390;-87
2021/12/26 02:01:13;;;;;;;4.40;1.48;;;-6.60;99.90;;;;;;6224037;22;20027;-88
2021/12/26 02:03:41;;;;;;;4.00;1.45;;;-6.70;99.90;;;;;;6248938;22;20695;-88
2021/12/26 02:06:08;;;;;;;2.05;1.20;;;-6.80;99.90;;;;;;6223306;22;20055;-87
2021/12/26 02:08:35;;;;;;;5.00;1.30;;;-6.80;99.90;;;;;;6224013;22;20020;-88
2021/12/26 02:11:02;;;;;;;2.88;1.60;;;-6.80;99.90;;;;;;6248781;22;20339;-88
2021/12/26 02:13:29;;;;;;;4.05;1.50;;;-6.80;99.90;;;;;;6223083;22;20399;-88
2021/12/26 02:15:56;;;;;;;1.90;1.17;;;-6.80;99.90;;;;;;6211497;22;20102;-88
2021/12/26 02:18:22;;;;;;;4.05;1.30;;;-6.40;99.90;;;;;;6248636;22;20011;-88
2021/12/26 02:23:30;;;;;;;4.57;1.58;;;-6.80;99.90;;;;;;6248175;22;20027;-88
2021/12/26 02:28:22;;;;;;;5.15;1.30;;;-6.50;99.90;;;;;;6248275;22;20493;-88
2021/12/26 02:30:49;;;;;;;1.95;1.10;;;-6.80;99.90;;;;;;6223437;22;20023;-87
2021/12/26 02:33:16;;;;;;;3.25;1.42;;;-6.70;99.90;;;;;;6218121;22;20024;-88
2021/12/26 02:35:42;;;;;;;7.15;1.80;;;-6.20;99.90;;;;;;6192842;23;20086;-88
2021/12/26 02:38:10;;;;;;;5.25;1.50;;;-6.80;99.90;;;;;;6193047;23;20016;-88
2021/12/26 02:40:36;;;;;;;3.28;1.52;;;-6.90;99.90;;;;;;6217981;23;20031;-87
2021/12/26 02:43:03;;;;;;;5.38;1.60;;;-6.80;99.90;;;;;;6217395;23;20026;-90
2021/12/26 02:45:29;;;;;;;4.05;1.40;;;-6.80;99.90;;;;;;6217274;23;20020;-89
2021/12/26 02:47:54;;;;;;;3.97;1.45;;;-6.60;99.90;;;;;;6193472;23;20103;-87
2021/12/26 02:50:27;;;;;;;3.63;1.48;;;-6.80;99.90;;;;;;6217809;23;20051;-88
2021/12/26 02:52:57;;;;;;;2.83;1.40;;;-6.80;99.90;;;;;;6218243;23;20082;-88
2021/12/26 02:55:23;;;;;;;2.88;1.45;;;-6.70;99.90;;;;;;6218166;23;20083;-87
2021/12/26 02:57:52;;;;;;;4.10;1.60;;;-6.80;99.90;;;;;;6217586;23;20017;-88
2021/12/26 03:00:22;;;;;;;4.70;1.67;;;-6.80;99.90;;;;;;6217730;23;20052;-88
2021/12/26 03:02:51;;;;;;;5.13;1.70;;;-6.50;99.90;;;;;;6218027;23;20024;-87
2021/12/26 03:05:19;;;;;;;2.53;1.63;;;-6.90;99.90;;;;;;6192100;23;20016;-88
2021/12/26 03:07:46;;;;;;;6.07;1.60;;;-6.90;99.90;;;;;;6218235;23;20024;-88
2021/12/26 03:10:22;;;;;;;4.53;1.52;;;-6.90;99.90;;;;;;6218031;23;20095;-87
2021/12/26 03:12:54;;;;;;;4.57;1.63;;;-6.90;99.90;;;;;;6216882;23;20352;-88
2021/12/26 03:15:21;;;;;;;2.65;1.30;;;-6.70;99.90;;;;;;6217859;23;20470;-89
2021/12/26 03:17:49;;;;;;;4.97;1.85;;;-6.80;99.90;;;;;;6175329;22;20020;-87
2021/12/26 03:20:20;;;;;;;4.00;1.58;;;-6.50;99.90;;;;;;6216830;23;20027;-87
2021/12/26 03:22:49;;;;;;;3.92;2.13;;;-7.00;99.90;;;;;;6192646;23;20039;-88
2021/12/26 03:25:21;;;;;;;2.00;1.40;;;-6.20;99.90;;;;;;6216014;23;20035;-88
2021/12/26 03:27:48;;;;;;;3.72;1.58;;;-6.90;99.90;;;;;;6192225;23;20099;-87
2021/12/26 03:30:20;;;;;;;5.78;2.17;;;-7.00;99.90;;;;;;6218033;23;20403;-87
2021/12/26 03:32:46;;;;;;;4.97;1.90;;;-6.60;99.90;;;;;;6221082;22;20047;-88
2021/12/26 03:35:12;;;;;;;3.72;1.88;;;-6.90;99.90;;;;;;6247720;22;20019;-88
2021/12/26 03:37:42;;;;;;;6.05;1.50;;;-7.00;99.90;;;;;;6222625;22;20474;-89
2021/12/26 03:40:08;;;;;;;4.57;1.70;;;-7.20;99.90;;;;;;6248116;22;20020;-87
2021/12/26 03:42:35;;;;;;;4.32;1.73;;;-6.90;99.90;;;;;;6221659;22;20050;-87
2021/12/26 03:45:01;;;;;;;4.03;1.80;;;-6.90;99.90;;;;;;6222516;22;20103;-87
2021/12/26 03:47:29;;;;;;;4.05;1.63;;;-6.90;99.90;;;;;;6247222;22;20591;-87
2021/12/26 03:49:55;;;;;;;5.10;1.90;;;-6.50;99.90;;;;;;6247896;22;20063;-90
2021/12/26 03:52:24;;;;;;;3.55;1.85;;;-6.90;99.90;;;;;;6248332;22;20042;-87
2021/12/26 03:54:54;;;;;;;6.53;1.80;;;-6.90;99.90;;;;;;6222952;22;20095;-88
2021/12/26 03:57:20;;;;;;;3.88;1.80;;;-6.90;99.90;;;;;;6221933;22;20024;-89
2021/12/26 03:59:46;;;;;;;1.95;1.42;;;-6.90;99.90;;;;;;6248327;22;20031;-87
2021/12/26 04:02:15;;;;;;;4.05;1.40;;;-6.80;99.90;;;;;;6223026;22;20016;-91
2021/12/26 04:04:42;;;;;;;2.85;1.90;;;-6.50;99.90;;;;;;6247543;22;20454;-87
2021/12/26 04:07:09;;;;;;;2.95;1.50;;;-6.90;99.90;;;;;;6222725;22;20031;-89
2021/12/26 04:09:35;;;;;;;3.10;1.75;;;-6.90;99.90;;;;;;6222852;22;20015;-87
2021/12/26 04:12:01;;;;;;;5.60;1.83;;;-6.90;99.90;;;;;;6221843;22;20538;-88
2021/12/26 04:14:27;;;;;;;5.32;1.92;;;-6.90;99.90;;;;;;6224856;22;20051;-88
2021/12/26 04:16:52;;;;;;;3.67;2.05;;;-6.60;99.90;;;;;;6182857;22;20055;-87
2021/12/26 04:19:18;;;;;;;7.72;2.15;;;-6.60;99.90;;;;;;6249177;22;20020;-87
2021/12/26 04:21:44;;;;;;;4.93;2.00;;;-6.90;99.90;;;;;;6224444;22;20332;-88
2021/12/26 04:24:10;;;;;;;9.20;2.10;;;-7.10;99.90;;;;;;6224178;22;20074;-87
2021/12/26 04:26:54;;;;;;;2.83;1.70;;;-6.60;99.90;;;;;;6249357;22;20344;-87
2021/12/26 04:29:20;;;;;;;4.38;1.88;;;-6.70;99.90;;;;;;6224409;22;20023;-87
2021/12/26 04:31:46;;;;;;;5.22;1.80;;;-7.00;99.90;;;;;;6224745;22;20034;-88
2021/12/26 04:34:12;;;;;;;5.25;1.90;;;-7.00;99.90;;;;;;6236750;22;20094;-87
2021/12/26 04:36:37;;;;;;;4.45;1.77;;;-7.00;99.90;;;;;;6249422;22;20023;-87
2021/12/26 04:39:04;;;;;;;3.65;1.63;;;-6.60;99.90;;;;;;6224529;22;20467;-87
2021/12/26 04:41:29;;;;;;;5.57;2.03;;;-7.00;99.90;;;;;;6248967;22;20435;-87
2021/12/26 04:43:55;;;;;;;3.05;1.95;;;-6.90;99.90;;;;;;6223955;22;20027;-87
2021/12/26 04:46:21;;;;;;;5.07;2.10;;;-6.90;99.90;;;;;;6249491;22;20020;-88
2021/12/26 04:48:47;;;;;;;5.18;2.20;;;-6.90;99.90;;;;;;6249201;22;20050;-87
2021/12/26 04:51:14;;;;;;;5.57;2.33;;;-6.90;99.90;;;;;;6224375;22;20034;-87
2021/12/26 04:53:40;;;;;;;4.35;2.03;;;-6.90;99.90;;;;;;6224457;22;20521;-87
2021/12/26 04:56:07;;;;;;;5.05;2.22;;;-6.90;99.90;;;;;;6249099;22;20020;-87
2021/12/26 04:58:33;;;;;;;6.53;2.13;;;-6.80;99.90;;;;;;6275458;22;20027;-87
2021/12/26 05:00:59;;;;;;;5.40;2.33;;;-6.90;99.90;;;;;;6224613;22;20024;-88
2021/12/26 05:03:25;;;;;;;4.65;2.05;;;-6.90;99.90;;;;;;6274594;22;20073;-87
2021/12/26 05:05:51;;;;;;;3.85;2.03;;;-6.90;99.90;;;;;;6249530;22;20459;-88
2021/12/26 05:08:17;;;;;;;3.28;1.70;;;-6.90;99.90;;;;;;6224418;22;20098;-88
2021/12/26 05:10:45;;;;;;;5.13;2.00;;;-7.00;99.90;;;;;;6221763;22;20020;-87
2021/12/26 05:13:10;;;;;;;7.85;2.60;;;-6.60;99.90;;;;;;6249455;22;20019;-88
2021/12/26 05:15:36;;;;;;;4.10;2.15;;;-6.90;99.90;;;;;;6224351;22;20402;-87
2021/12/26 05:18:05;;;;;;;4.57;2.05;;;-6.90;99.90;;;;;;6181119;22;20024;-88
2021/12/26 05:20:31;;;;;;;5.30;2.10;;;-6.40;99.90;;;;;;6223951;22;20051;-88
2021/12/26 05:23:00;;;;;;;6.55;2.30;;;-6.30;99.90;;;;;;6249251;22;20363;-87
2021/12/26 05:25:26;;;;;;;5.03;2.33;;;-6.40;99.90;;;;;;6223341;22;20019;-89
2021/12/26 05:27:53;;;;;;;6.15;2.30;;;-6.90;99.90;;;;;;6249321;22;20069;-89
2021/12/26 05:30:20;;;;;;;4.15;1.75;;;-6.90;99.90;;;;;;6249275;22;20024;-87
2021/12/26 05:32:46;;;;;;;5.00;2.42;;;-6.90;99.90;;;;;;6187548;22;20394;-87
2021/12/26 05:35:14;;;;;;;5.10;2.40;;;-6.60;99.90;;;;;;6193757;23;20023;-88
2021/12/26 05:37:40;;;;;;;3.08;1.70;;;-6.90;99.90;;;;;;6193634;23;20403;-88
2021/12/26 05:40:10;;;;;;;4.82;2.53;;;-6.90;99.90;;;;;;6193036;23;20031;-88
2021/12/26 05:42:36;;;;;;;4.65;2.30;;;-6.80;99.90;;;;;;6193503;23;20086;-87
2021/12/26 05:45:02;;;;;;;7.47;2.70;;;-6.90;99.90;;;;;;6192962;23;20440;-87
2021/12/26 05:47:28;;;;;;;4.40;2.38;;;-6.20;99.90;;;;;;6192564;23;20020;-87
2021/12/26 05:49:54;;;;;;;5.00;2.80;;;-6.80;99.90;;;;;;6193827;23;20016;-88
2021/12/26 05:52:23;;;;;;;4.88;2.50;;;-6.90;99.90;;;;;;6219022;23;20063;-88
2021/12/26 05:54:49;;;;;;;6.50;2.60;;;-6.90;99.90;;;;;;6217831;23;20344;-87
2021/12/26 05:57:16;;;;;;;4.50;2.28;;;-7.00;99.90;;;;;;6193760;23;20024;-89
2021/12/26 05:59:46;;;;;;;7.40;2.30;;;-6.50;99.90;;;;;;6218903;23;20047;-87
2021/12/26 06:02:11;;;;;;;4.93;2.15;;;-6.90;99.90;;;;;;6193093;23;20023;-87
2021/12/26 06:04:39;;;;;;;5.28;2.30;;;-6.90;99.90;;;;;;6193433;23;20074;-87
2021/12/26 06:07:05;;;;;;;7.75;2.50;;;-7.00;99.90;;;;;;6193627;23;20375;-87
2021/12/26 06:09:33;;;;;;;7.15;2.58;;;-6.60;99.90;;;;;;6217937;23;20013;-86
2021/12/26 06:11:59;;;;;;;3.88;2.30;;;-7.00;99.90;;;;;;6217216;23;20162;-87
2021/12/26 06:14:26;;;;;;;6.45;2.53;;;-6.90;99.90;;;;;;6193309;23;20058;-88
2021/12/26 06:16:51;;;;;;;5.57;2.20;;;-6.90;99.90;;;;;;6150321;22;20031;-87
2021/12/26 06:19:17;;;;;;;4.88;2.05;;;-6.90;99.90;;;;;;6218005;23;20012;-87
2021/12/26 06:21:43;;;;;;;6.57;2.42;;;-6.80;99.90;;;;;;6218091;23;20106;-88
2021/12/26 06:24:09;;;;;;;8.68;2.97;;;-6.80;99.90;;;;;;6192568;23;20027;-87
2021/12/26 06:26:37;;;;;;;4.38;2.30;;;-6.10;99.90;;;;;;6193479;23;20024;-87
2021/12/26 06:29:03;;;;;;;7.03;2.85;;;-6.70;99.90;;;;;;6193041;23;20016;-87
2021/12/26 06:31:29;;;;;;;6.20;2.60;;;-6.80;99.90;;;;;;6217762;23;20030;-87
2021/12/26 06:33:55;;;;;;;4.20;2.15;;;-6.30;99.90;;;;;;6206166;23;20020;-87
2021/12/26 06:36:21;;;;;;;4.50;2.60;;;-6.80;99.90;;;;;;6192745;23;20082;-87
2021/12/26 06:38:47;;;;;;;6.82;3.05;;;-6.30;99.90;;;;;;6217308;23;20062;-87
2021/12/26 06:41:18;;;;;;;5.38;2.40;;;-6.90;99.90;;;;;;6235754;22;20317;-87
2021/12/26 06:43:45;;;;;;;;;;;-6.70;99.90;;;;;;6218157;23;20055;-87
2021/12/26 06:46:11;;;;;;;6.22;2.40;;;-7.10;99.90;;;;;;6217382;23;19915;-87
2021/12/26 06:48:41;;;;;;;7.70;2.33;;;-6.70;99.90;;;;;;6217988;23;20016;-87
2021/12/26 06:51:07;;;;;;;4.77;2.33;;;-6.70;99.90;;;;;;6193332;23;20408;-87
2021/12/26 06:53:33;;;;;;;3.08;2.00;;;-6.70;99.90;;;;;;6217904;23;20055;-87
2021/12/26 06:55:59;;;;;;;4.70;2.38;;;-6.70;99.90;;;;;;6218206;23;20031;-87
2021/12/26 06:58:25;;;;;;;6.85;2.70;;;-6.60;99.90;;;;;;6192892;23;20020;-88
2021/12/26 07:00:51;;;;;;;4.35;2.20;;;-6.30;99.90;;;;;;6217919;23;20024;-87
2021/12/26 07:03:19;;;;;;;5.35;2.80;;;-6.60;99.90;;;;;;6218305;23;20027;-86
2021/12/26 07:05:45;;;;;;;6.35;2.50;;;-6.60;99.90;;;;;;6192926;23;20039;-87
2021/12/26 07:08:13;;;;;;;7.95;2.78;;;-6.60;99.90;;;;;;6217625;23;20016;-87
2021/12/26 07:10:39;;;;;;;5.40;2.22;;;-5.90;99.90;;;;;;6192878;23;20479;-87
2021/12/26 07:13:07;;;;;;;5.60;2.55;;;-6.60;99.90;;;;;;6217926;23;20020;-88
2021/12/26 07:15:33;;;;;;;5.03;2.67;;;-6.10;99.90;;;;;;6216864;23;20020;-88
2021/12/26 07:18:06;;;;;;;5.70;2.85;;;-6.30;99.90;;;;;;6150618;22;20077;-87
2021/12/26 07:20:32;;;;;;;4.38;2.78;;;-6.60;99.90;;;;;;6192598;23;20423;-87
2021/12/26 07:22:58;;;;;;;6.95;2.78;;;-6.50;99.90;;;;;;6217143;23;20056;-87
2021/12/26 07:25:24;;;;;;;4.88;2.83;;;-6.60;99.90;;;;;;6217567;23;20016;-87
2021/12/26 07:27:49;;;;;;;5.85;2.20;;;-6.50;99.90;;;;;;6192815;23;20026;-87
2021/12/26 07:30:15;;;;;;;6.57;2.80;;;-6.50;99.90;;;;;;6191283;23;20110;-87
2021/12/26 07:32:41;;;;;;;6.13;2.75;;;-5.70;99.90;;;;;;6220018;22;20589;-87
2021/12/26 07:35:08;;;;;;;4.32;2.53;;;-6.50;99.90;;;;;;6246890;22;20462;-88
2021/12/26 07:37:34;;;;;;;5.80;3.00;;;-6.50;99.90;;;;;;6221435;22;20031;-87
2021/12/26 07:40:00;;;;;;;6.60;3.13;;;-6.60;99.90;;;;;;6222293;22;20020;-87
2021/12/26 07:42:26;;;;;;;4.95;2.78;;;-6.60;99.90;;;;;;6247597;22;20458;-88
2021/12/26 07:44:52;;;;;;;6.80;2.78;;;-6.60;99.90;;;;;;6247142;22;20008;-91
2021/12/26 07:47:18;;;;;;;5.10;2.67;;;-6.60;99.90;;;;;;6225351;22;20015;-87
2021/12/26 07:49:47;;;;;;;6.15;2.60;;;-6.60;99.90;;;;;;6251465;22;20026;-87
2021/12/26 07:52:17;;;;;;;5.28;2.72;;;-6.70;99.90;;;;;;6251100;22;20463;-89
2021/12/26 07:54:44;;;;;;;6.05;2.67;;;-6.30;99.90;;;;;;6251741;22;20023;-88
2021/12/26 07:57:10;;;;;;;7.15;3.63;;;-6.60;99.90;;;;;;6251383;22;20027;-87
2021/12/26 07:59:36;;;;;;;5.43;2.58;;;-6.20;99.90;;;;;;6225387;22;20350;-87
2021/12/26 08:02:02;;;;;;;6.07;2.83;;;-6.60;99.90;;;;;;6226326;22;20026;-87
2021/12/26 08:04:28;;;;;;;10.05;3.17;;;-6.60;99.90;;;;;;6225962;22;20020;-88
2021/12/26 08:06:54;;;;;;;6.40;3.13;;;-6.50;99.90;;;;;;6226164;22;20353;-88
2021/12/26 08:09:20;;;;;;;7.95;2.83;;;-6.50;99.90;;;;;;6251235;22;20023;-87
2021/12/26 08:11:46;;;;;;;7.68;4.03;;;-6.20;99.90;;;;;;6225912;22;20020;-87
2021/12/26 08:14:11;;;;;;;5.97;2.85;;;-6.40;99.90;;;;;;6226015;22;20329;-87
2021/12/26 08:16:38;;;;;;;5.55;3.00;;;-6.40;99.90;;;;;;6182736;22;20057;-88
2021/12/26 08:19:06;;;;;;;6.07;3.13;;;-6.00;99.90;;;;;;6225060;22;20345;-87
2021/12/26 08:21:41;;;;;;;6.20;2.58;;;-6.40;99.90;;;;;;6225956;22;20339;-87
2021/12/26 08:24:07;;;;;;;5.65;2.95;;;-6.00;99.90;;;;;;6250261;22;20023;-88
2021/12/26 08:26:33;;;;;;;8.57;3.20;;;-6.40;99.90;;;;;;6225709;22;20019;-88
2021/12/26 08:28:59;;;;;;;6.22;2.95;;;-6.40;99.90;;;;;;6251056;22;20431;-87
2021/12/26 08:31:25;;;;;;;8.25;2.95;;;-6.30;99.90;;;;;;6276390;22;20016;-86
2021/12/26 08:33:51;;;;;;;5.75;2.85;;;-6.30;99.90;;;;;;6220125;23;20099;-90
2021/12/26 08:36:20;;;;;;;6.70;2.78;;;-6.30;99.90;;;;;;6221073;23;20446;-86
2021/12/26 08:38:47;;;;;;;6.65;3.35;;;-6.20;99.90;;;;;;6220381;23;20024;-87
2021/12/26 08:41:13;;;;;;;6.30;2.97;;;-5.90;99.90;;;;;;6220871;23;20012;-87
2021/12/26 08:43:42;;;;;;;5.43;2.95;;;-6.10;99.90;;;;;;6220462;23;20016;-87
2021/12/26 08:46:11;;;;;;;5.32;2.83;;;-6.00;99.90;;;;;;6219875;23;20074;-88
2021/12/26 08:48:37;;;;;;;6.53;3.05;;;-6.00;99.90;;;;;;6195237;23;20016;-87
2021/12/26 08:51:03;;;;;;;3.88;2.70;;;-5.90;99.90;;;;;;6195931;23;20038;-88
2021/12/26 08:53:29;;;;;;;5.55;3.10;;;-5.60;99.90;;;;;;6195048;23;20081;-88
2021/12/26 08:55:57;;;;;;;8.18;3.40;;;-5.70;99.90;;;;;;6220945;23;20023;-87
2021/12/26 08:58:23;;;;;;;8.00;3.30;;;-5.90;99.90;;;;;;6219551;23;20090;-87
2021/12/26 09:00:49;;;;;;;7.22;2.75;;;-5.80;99.90;;;;;;6193458;23;20105;-88
2021/12/26 09:03:15;;;;;;;7.60;2.95;;;-5.70;99.90;;;;;;6193554;23;20027;-89
2021/12/26 09:05:41;;;;;;;5.88;3.05;;;-5.70;99.90;;;;;;6194075;23;20020;-88
2021/12/26 09:08:10;;;;;;;6.28;3.58;;;-5.60;99.90;;;;;;6218720;23;20107;-88
2021/12/26 09:10:38;;;;;;;5.90;3.22;;;-5.10;99.90;;;;;;6194216;23;20016;-89
2021/12/26 09:13:04;;;;;;;6.07;3.30;;;-5.40;99.90;;;;;;6219201;23;20031;-88
2021/12/26 09:15:30;;;;;;;7.78;3.55;;;-5.00;99.90;;;;;;6218772;23;20016;-88
2021/12/26 09:17:59;;;;;;;7.03;3.20;;;-3.80;99.90;;;;;;6152120;23;20170;-88
2021/12/26 09:20:25;;;;;;;6.05;3.17;;;-3.00;99.90;;;;;;6193634;23;20036;-91
2021/12/26 09:22:51;;;;;;;5.40;2.83;;;-2.10;99.90;;;;;;6193328;23;20121;-89
2021/12/26 09:25:17;;;;;;;6.45;2.78;;;-1.50;99.90;;;;;;6209793;23;20104;-88
2021/12/26 09:27:43;;;;;;;7.20;3.00;;;-0.90;99.90;;;;;;6218688;23;20048;-88
2021/12/26 09:30:11;;;;;;;4.63;3.28;;;-0.80;99.90;;;;;;6217550;23;20348;-88
2021/12/26 09:32:38;;;;;;;6.70;3.03;;;0.00;99.90;;;;;;6218397;23;20343;-89
2021/12/26 09:35:04;;;;;;;4.70;2.70;;;0.40;99.90;;;;;;6221636;22;20062;-89
2021/12/26 09:37:31;;;;;;;5.97;3.17;;;0.80;99.90;;;;;;6248849;22;20023;-89
2021/12/26 09:39:59;;;;;;;6.82;3.05;;;1.10;99.90;;;;;;6274515;22;20023;-91
2021/12/26 09:42:29;;;;;;;6.93;3.13;;;1.60;99.90;;;;;;6221865;22;20077;-89
2021/12/26 09:44:55;;;;;;;5.63;3.00;;;1.50;99.90;;;;;;6249603;22;20090;-91
2021/12/26 09:47:23;;;;;;;8.40;3.63;;;1.60;99.90;;;;;;6250338;22;20020;-89
2021/12/26 09:49:49;;;;;;;5.22;3.13;;;1.40;99.90;;;;;;6225156;22;20074;-89
2021/12/26 09:52:17;;;;;;;6.57;3.20;;;1.60;99.90;;;;;;6250407;22;20490;-89
2021/12/26 09:54:45;;;;;;;5.68;3.15;;;1.40;99.90;;;;;;6225024;22;20107;-89
2021/12/26 09:57:29;;;;;;;4.40;2.80;;;1.90;99.90;;;;;;6225466;22;20051;-90
2021/12/26 09:59:55;;;;;;;4.82;2.90;;;2.90;99.90;;;;;;6250310;22;20099;-89
2021/12/26 10:02:21;;;;;;;4.63;3.10;;;3.30;99.90;;;;;;6225384;22;20398;-90
2021/12/26 10:04:50;;;;;;;5.20;2.95;;;2.20;98.50;;;;;;6226047;22;20019;-90
2021/12/26 10:07:23;;;;;;;6.32;3.10;;;2.90;98.70;;;;;;6227207;22;20144;-89
2021/12/26 10:10:05;;;;;;;10.38;2.90;;;3.00;96.70;;;;;;6249503;22;20449;-90
2021/12/26 10:16:27;;;;;;;5.43;2.97;;;2.50;94.60;;;;;;6277800;22;20022;-90
2021/12/26 10:18:53;;;;;;;5.28;2.97;;;3.10;94.90;;;;;;6248589;22;20038;-91
2021/12/26 10:25:49;;;;;;;5.22;3.17;;;4.20;92.10;;;;;;6278608;22;20027;-91
2021/12/26 10:37:03;;;;;;;5.93;3.42;;;5.40;86.70;;;;;;6286763;22;20058;-90
2021/12/26 10:39:33;;;;;;;5.88;3.70;;;5.80;81.90;;;;;;6221646;23;20522;-91
2021/12/26 10:53:11;;;;;;;6.90;3.60;;;6.30;73.50;;;;;;6248291;22;20340;-89
2021/12/26 10:55:43;;;;;;;6.53;3.47;;;6.40;74.10;;;;;;6220842;23;20027;-89
2021/12/26 10:58:30;;;;;;;6.05;3.58;;;6.80;71.50;;;;;;6221339;23;20028;-90
2021/12/26 11:00:58;;;;;;;5.97;3.30;;;6.50;68.10;;;;;;6221058;23;20016;-89
2021/12/26 11:03:27;;;;;;;6.93;3.80;;;6.50;70.10;;;;;;6220264;23;20017;-89
2021/12/26 11:06:36;;;;;;;5.10;3.20;;;6.60;67.90;;;;;;6221375;23;20067;-89
2021/12/26 11:09:17;;;;;;;4.60;3.40;;;6.30;66.40;;;;;;6195728;23;20024;-89
2021/12/26 11:12:26;;;;;;;6.35;3.65;;;6.00;68.20;;;;;;6220021;23;20502;-89
2021/12/26 11:19:52;;;;;;;6.88;4.47;;;5.50;70.60;;;;;;6274448;22;20020;-89
2021/12/26 11:22:18;;;;;;;6.35;4.07;;;5.60;70.40;;;;;;6250015;22;20085;-90
2021/12/26 11:25:14;;;;;;;5.53;3.70;;;5.60;68.80;;;;;;6250129;22;20078;-89
2021/12/26 11:31:54;;;;;;;5.47;3.63;;;5.10;66.10;;;;;;6277719;22;20010;-89
2021/12/26 11:34:20;;;;;;;5.45;3.85;;;4.50;71.40;;;;;;6250251;22;20024;-92
2021/12/26 11:36:49;;;;;;;5.18;3.60;;;4.00;72.90;;;;;;6275344;22;20020;-91
2021/12/26 11:39:18;;;;;;;7.43;4.07;;;4.00;74.50;;;;;;6249237;22;20023;-90
2021/12/26 11:42:34;;;;;;;6.65;4.10;;;4.20;73.00;;;;;;6249743;22;20054;-90
2021/12/26 11:45:15;;;;;;;6.55;3.47;;;4.30;72.40;;;;;;6127400;23;20457;-89
2021/12/26 11:48:23;;;;;;;7.57;4.15;;;4.10;72.10;;;;;;6101789;23;20033;-90
2021/12/26 11:51:12;;;;;;;6.53;3.97;;;3.30;73.50;;;;;;6126297;23;20022;-91
2021/12/26 11:53:57;;;;;;;5.90;3.78;;;2.90;76.40;;;;;;6103193;23;20025;-90
2021/12/26 11:56:40;;;;;;;6.80;4.03;;;3.00;80.50;;;;;;6127857;23;20018;-89
2021/12/26 11:59:08;;;;;;;5.70;3.65;;;3.30;80.40;;;;;;6103331;23;20036;-91
2021/12/26 12:01:40;;;;;;;6.57;3.90;;;3.00;81.70;;;;;;6127766;23;20096;-89
2021/12/26 12:04:22;;;;;;;8.18;4.22;;;3.20;83.70;;;;;;6102694;23;20101;-90
2021/12/26 12:06:54;;;;;;;6.25;4.07;;;2.90;83.80;;;;;;6126880;23;20017;-91
2021/12/26 12:09:32;;;;;;;10.02;4.60;;;3.70;83.00;;;;;;6128462;23;20096;-90
2021/12/26 12:12:13;;;;;;;6.85;4.10;;;3.30;81.00;;;;;;6127776;23;20029;-90
2021/12/26 12:14:47;;;;;;;7.70;4.60;;;3.00;81.60;;;;;;6127903;23;20357;-90
2021/12/26 12:17:15;;;;;;;8.23;4.20;;;3.10;83.20;;;;;;6049752;23;20248;-91
2021/12/26 12:20:07;;;;;;;8.32;4.13;;;2.80;83.40;;;;;;6127352;23;20018;-91
2021/12/26 12:22:34;;;;;;;6.88;4.05;;;2.40;84.10;;;;;;6190870;23;20102;-92
2021/12/26 12:25:34;;;;;;;7.90;4.00;;;1.90;88.10;;;;;;6218782;23;20047;-90
2021/12/26 12:28:21;;;;;;;7.28;4.28;;;1.50;90.10;;;;;;6193425;23;20058;-90
2021/12/26 12:30:52;;;;;;;9.63;3.92;;;1.20;91.60;;;;;;6217910;23;20027;-90
2021/12/26 12:33:30;;;;;;;7.88;4.07;;;1.20;93.10;;;;;;6218762;23;20020;-90
2021/12/26 12:36:41;;;;;;;6.75;4.03;;;0.70;93.00;;;;;;6221142;23;20381;-89
2021/12/26 12:39:25;;;;;;;7.32;4.30;;;0.80;94.10;;;;;;6104954;23;20029;-90
2021/12/26 12:41:53;;;;;;;7.03;4.25;;;1.00;94.80;;;;;;6100975;23;20350;-90
2021/12/26 12:45:10;;;;;;;7.50;4.05;;;0.80;95.90;;;;;;6125802;23;20021;-89
2021/12/26 12:47:35;;;;;;;6.47;3.80;;;1.20;97.20;;;;;;6100849;23;20037;-91
2021/12/26 12:50:03;;;;;;;7.95;4.22;;;1.50;96.30;;;;;;6077593;23;20022;-89
2021/12/26 12:52:45;;;;;;;9.07;4.10;;;1.50;96.00;;;;;;6100979;23;20022;-89
2021/12/26 12:55:17;;;;;;;8.35;4.22;;;1.40;95.50;;;;;;6101148;23;20058;-90
2021/12/26 12:57:55;;;;;;;7.20;4.30;;;1.70;95.90;;;;;;6101270;23;20046;-88
2021/12/26 13:00:23;;;;;;;8.68;4.68;;;1.20;96.20;;;;;;6099208;23;20026;-88
2021/12/26 13:02:50;;;;;;;7.25;4.50;;;1.10;96.70;;;;;;6076501;23;20033;-88
2021/12/26 13:05:24;;;;;;;7.43;4.47;;;1.50;96.80;;;;;;6075319;23;20054;-89
2021/12/26 13:08:00;;;;;;;8.80;4.60;;;1.40;96.20;;;;;;6099664;23;20033;-89
2021/12/26 13:10:31;;;;;;;8.35;4.70;;;1.40;97.40;;;;;;6100038;23;20548;-90
2021/12/26 13:16:37;;;;;;;8.68;4.57;;;1.60;99.40;;;;;;6243764;23;20015;-92
2021/12/26 13:19:08;;;;;;;8.68;4.78;;;2.30;98.80;;;;;;6196151;22;20344;-89
2021/12/26 13:21:35;;;;;;;;;;;2.60;98.60;;;;;;6251663;22;20027;-91
2021/12/26 13:24:01;;;;;;;8.07;4.00;;;2.60;96.00;;;;;;6224395;22;19921;-91
2021/12/26 13:26:27;;;;;;;9.93;4.93;;;2.50;97.40;;;;;;6216041;22;20498;-90
2021/12/26 13:28:54;;;;;;;10.18;4.50;;;2.40;98.20;;;;;;6226508;22;20024;-91
2021/12/26 13:31:25;;;;;;;9.18;4.78;;;2.90;98.00;;;;;;6226457;22;20523;-90
2021/12/26 13:33:53;;;;;;;7.05;4.35;;;2.20;98.00;;;;;;6252346;22;20030;-89
2021/12/26 13:36:23;;;;;;;8.32;4.45;;;2.30;98.60;;;;;;6225478;22;20062;-90
2021/12/26 13:38:51;;;;;;;6.03;4.22;;;2.10;98.70;;;;;;6251761;22;20020;-90
2021/12/26 13:41:19;;;;;;;5.68;3.95;;;1.70;98.20;;;;;;6250749;22;20055;-90
2021/12/26 13:44:14;;;;;;;7.97;4.60;;;1.40;98.50;;;;;;6250685;22;20461;-89
2021/12/26 13:46:39;;;;;;;8.27;4.97;;;1.30;99.90;;;;;;6225546;22;20016;-91
2021/12/26 13:49:08;;;;;;;8.05;4.53;;;1.40;99.90;;;;;;6224637;22;20460;-90